Time;durP1;ratioP1;P1;durP2;ratioP2;P2;SDS_P1;SDS_P2;PMS_P1;PMS_P2;Temp;Humidity;BMP_temperature;BMP_pressure;BME280_temperature;BME280_humidity;BME280_pressure;Samples;Min_cycle;Max_cycle;Signal;HPM_P1;HPM_P2
2021/03/10 00:01:05;;;;;;;18.73;10.75;;;;;;;5.79;65.61;99033.78;4841125;29;20038;-78
2021/03/10 00:03:30;;;;;;;20.38;9.95;;;;;;;5.81;65.62;99034.34;4840426;29;20575;-78
2021/03/10 00:05:56;;;;;;;21.30;10.73;;;;;;;5.84;65.38;99027.75;4841474;29;20527;-79
2021/03/10 00:08:21;;;;;;;20.25;10.45;;;;;;;5.83;65.83;99034.09;4838629;29;20041;-78
2021/03/10 00:10:47;;;;;;;19.83;10.98;;;;;;;5.77;65.87;99026.09;4816616;29;20412;-78
2021/03/10 00:13:12;;;;;;;16.95;10.23;;;;;;;5.77;65.92;99020.78;4839686;29;20488;-77
2021/03/10 00:15:37;;;;;;;16.55;10.20;;;;;;;5.77;65.76;99023.44;4823650;29;20033;-77
2021/03/10 00:18:03;;;;;;;16.90;9.73;;;;;;;5.79;65.80;99031.13;4839560;29;20059;-77
2021/03/10 00:20:29;;;;;;;20.98;10.60;;;;;;;5.77;65.93;99020.78;4823829;29;20101;-78
2021/03/10 00:22:54;;;;;;;19.75;12.50;;;;;;;5.75;65.56;99019.41;4838678;29;20644;-77
2021/03/10 00:25:20;;;;;;;17.17;10.77;;;;;;;5.73;65.74;99018.84;4822233;29;20902;-77
2021/03/10 00:27:45;;;;;;;23.40;11.93;;;;;;;5.70;65.76;99006.88;4805396;29;20125;-76
2021/03/10 00:30:11;;;;;;;22.75;11.68;;;;;;;5.69;65.51;99017.72;4821347;29;20130;-76
2021/03/10 00:32:38;;;;;;;19.08;10.68;;;;;;;5.65;65.71;99014.78;4821736;29;20095;-77
2021/03/10 00:35:05;;;;;;;21.00;9.27;;;;;;;5.64;65.58;99010.50;4838172;29;20040;-77
2021/03/10 00:37:31;;;;;;;17.52;10.57;;;;;;;5.65;66.01;99011.28;4839432;29;20125;-77
2021/03/10 00:39:56;;;;;;;15.25;10.23;;;;;;;5.62;66.00;99020.56;4831967;29;20160;-78
2021/03/10 00:42:22;;;;;;;17.52;10.30;;;;;;;5.59;66.11;99013.88;4826482;29;20428;-78
2021/03/10 00:44:47;;;;;;;20.20;10.80;;;;;;;5.58;66.31;99009.63;4826846;29;20041;-78
2021/03/10 00:47:14;;;;;;;22.13;11.43;;;;;;;5.58;66.06;99016.78;4826718;29;20038;-78
2021/03/10 00:49:40;;;;;;;18.58;11.30;;;;;;;5.57;66.41;99015.97;4826810;29;20484;-77
2021/03/10 00:52:07;;;;;;;18.95;10.85;;;;;;;5.55;66.33;99011.97;4843231;29;20117;-78
2021/03/10 00:54:33;;;;;;;17.95;11.05;;;;;;;5.56;66.35;99011.72;4826626;29;20053;-78
2021/03/10 00:56:58;;;;;;;16.38;10.35;;;;;;;5.58;66.09;99006.19;4843036;29;20040;-78
2021/03/10 00:59:24;;;;;;;26.17;12.07;;;;;;;5.57;65.94;98992.09;4826213;29;20121;-78
2021/03/10 01:01:49;;;;;;;19.25;10.73;;;;;;;5.58;65.99;99004.31;4842307;29;20061;-77
2021/03/10 01:04:14;;;;;;;19.52;10.68;;;;;;;5.61;65.89;98998.53;4843331;29;20133;-78
2021/03/10 01:06:40;;;;;;;19.70;9.30;;;;;;;5.59;66.21;98992.66;4845684;29;20121;-77
2021/03/10 01:09:07;;;;;;;13.95;9.50;;;;;;;5.58;65.96;98991.06;4844900;29;20034;-79
2021/03/10 01:11:32;;;;;;;17.02;10.68;;;;;;;5.52;66.04;98981.41;4828769;29;20041;-77
2021/03/10 01:13:59;;;;;;;17.42;10.75;;;;;;;5.55;66.08;98978.25;4843813;29;20451;-77
2021/03/10 01:16:24;;;;;;;22.15;11.55;;;;;;;5.56;66.05;98971.91;4842763;29;20061;-77
2021/03/10 01:18:49;;;;;;;21.88;10.00;;;;;;;5.57;65.80;98978.03;4841762;29;20114;-77
2021/03/10 01:21:15;;;;;;;20.08;10.55;;;;;;;5.56;65.82;98973.78;4841130;29;20060;-77
2021/03/10 01:23:40;;;;;;;19.40;10.48;;;;;;;5.58;65.94;98975.13;4826073;29;20038;-77
2021/03/10 01:26:05;;;;;;;16.27;10.63;;;;;;;5.56;66.13;98977.22;4825804;29;20045;-77
2021/03/10 01:28:31;;;;;;;16.70;11.07;;;;;;;5.57;65.89;98968.22;4842906;29;20050;-77
2021/03/10 01:30:56;;;;;;;18.00;10.63;;;;;;;5.58;65.97;98961.88;4841016;29;20393;-77
2021/03/10 01:33:22;;;;;;;20.75;11.60;;;;;;;5.57;65.86;98952.31;4842501;29;20089;-77
2021/03/10 01:35:47;;;;;;;24.55;11.65;;;;;;;5.58;66.07;98951.25;4825738;29;20461;-77
2021/03/10 01:38:12;;;;;;;21.40;11.60;;;;;;;5.56;65.97;98945.38;4839497;29;20073;-77
2021/03/10 01:40:38;;;;;;;14.35;10.70;;;;;;;5.56;65.88;98936.63;4841826;29;20079;-77
2021/03/10 01:43:04;;;;;;;21.85;12.32;;;;;;;5.51;66.53;98924.09;4842272;29;20034;-77
2021/03/10 01:45:31;;;;;;;21.88;11.43;;;;;;;5.48;66.11;98927.25;4841988;29;20124;-77
2021/03/10 01:47:58;;;;;;;21.25;12.88;;;;;;;5.47;66.27;98928.31;4842506;29;20068;-77
2021/03/10 01:50:26;;;;;;;21.42;11.32;;;;;;;5.44;66.59;98928.78;4827209;29;20065;-77
2021/03/10 01:52:54;;;;;;;24.02;12.57;;;;;;;5.39;66.73;98915.47;4841324;29;20065;-77
2021/03/10 01:55:20;;;;;;;24.55;13.52;;;;;;;5.35;66.86;98919.66;4825624;29;20529;-79
2021/03/10 01:57:46;;;;;;;24.02;12.23;;;;;;;5.32;67.24;98910.31;4841044;29;20112;-79
2021/03/10 02:00:13;;;;;;;21.27;12.35;;;;;;;5.32;67.51;98912.19;4825658;29;20129;-78
2021/03/10 02:02:38;;;;;;;23.35;12.27;;;;;;;5.28;67.15;98909.22;4842657;29;20037;-77
2021/03/10 02:05:06;;;;;;;26.05;13.30;;;;;;;5.28;67.41;98909.22;4826663;29;20526;-77
2021/03/10 02:08:10;;;;;;;17.17;10.50;;;;;;;5.26;67.23;98912.13;4833458;29;20139;-78
2021/03/10 02:11:05;;;;;;;22.67;11.80;;;;;;;5.25;66.91;98917.66;4816304;29;20508;-78
2021/03/10 02:14:06;;;;;;;20.90;11.05;;;;;;;5.18;67.27;98899.28;4843239;29;20085;-77
2021/03/10 02:16:44;;;;;;;23.00;10.95;;;;;;;5.22;67.30;98918.94;4840816;29;20038;-76
2021/03/10 02:19:12;;;;;;;15.93;10.38;;;;;;;5.21;67.36;98900.63;4826248;29;20457;-77
2021/03/10 02:21:56;;;;;;;24.35;12.43;;;;;;;5.20;67.41;98883.94;4842722;29;20101;-77
2021/03/10 02:24:51;;;;;;;23.73;12.27;;;;;;;5.17;67.42;98876.44;4842069;29;20409;-77
2021/03/10 02:27:34;;;;;;;19.00;12.40;;;;;;;5.18;67.46;98874.63;4842796;29;20068;-77
2021/03/10 02:30:13;;;;;;;19.35;11.95;;;;;;;5.14;67.44;98879.59;4843261;29;20069;-77
2021/03/10 02:32:43;;;;;;;17.30;10.80;;;;;;;5.05;67.81;98875.75;4825400;29;20513;-77
2021/03/10 02:35:10;;;;;;;20.13;11.90;;;;;;;5.06;67.68;98886.09;4842655;29;20034;-77
2021/03/10 02:37:38;;;;;;;25.05;12.75;;;;;;;5.01;67.98;98887.91;4842316;29;20431;-77
2021/03/10 02:40:06;;;;;;;20.00;11.55;;;;;;;5.01;68.20;98890.53;4841918;29;20037;-77
2021/03/10 02:42:33;;;;;;;18.83;11.55;;;;;;;4.96;68.20;98884.09;4842200;29;20045;-77
2021/03/10 02:45:00;;;;;;;24.83;12.65;;;;;;;4.93;68.12;98889.91;4842177;29;20038;-77
2021/03/10 02:47:26;;;;;;;19.90;11.82;;;;;;;4.96;67.97;98900.00;4826968;29;20030;-78
2021/03/10 02:49:55;;;;;;;21.98;12.65;;;;;;;4.95;67.98;98901.06;4837273;29;20045;-78
2021/03/10 02:52:21;;;;;;;;;;;;;;;4.99;68.37;98903.22;4835881;29;20515;-78
2021/03/10 02:54:47;;;;;;;22.38;12.45;;;;;;;4.92;68.15;98890.94;4842817;29;19917;-77
2021/03/10 02:57:13;;;;;;;24.23;13.48;;;;;;;4.93;68.28;98892.56;4839567;29;20563;-77
2021/03/10 02:59:39;;;;;;;20.20;11.57;;;;;;;4.93;68.57;98894.38;4841768;29;20057;-77
2021/03/10 03:02:05;;;;;;;24.52;12.52;;;;;;;4.95;68.08;98903.69;4824837;29;20033;-77
2021/03/10 03:04:30;;;;;;;18.25;11.38;;;;;;;4.96;67.91;98902.66;4841539;29;20456;-78
2021/03/10 03:06:56;;;;;;;20.95;12.63;;;;;;;4.99;67.76;98896.06;4842573;29;20041;-79
2021/03/10 03:09:21;;;;;;;21.33;13.30;;;;;;;5.00;67.55;98894.25;4826030;29;20030;-78
2021/03/10 03:11:48;;;;;;;23.05;12.50;;;;;;;4.99;67.89;98897.94;4826116;29;20030;-78
2021/03/10 03:14:16;;;;;;;23.90;12.57;;;;;;;4.97;67.51;98882.28;4842533;29;20065;-78
2021/03/10 03:16:43;;;;;;;24.52;13.32;;;;;;;4.98;67.73;98894.50;4841860;29;20026;-79
2021/03/10 03:19:09;;;;;;;22.90;12.68;;;;;;;4.96;67.74;98891.28;4826117;29;20090;-78
2021/03/10 03:21:35;;;;;;;23.13;12.75;;;;;;;4.95;67.85;98885.16;4826576;29;20415;-79
2021/03/10 03:24:01;;;;;;;22.92;12.55;;;;;;;4.94;68.21;98891.53;4842150;29;20125;-79
2021/03/10 03:26:27;;;;;;;23.45;12.45;;;;;;;4.95;67.92;98901.06;4825030;29;20715;-79
2021/03/10 03:28:55;;;;;;;21.73;13.20;;;;;;;4.93;68.29;98899.69;4841617;29;20026;-80
2021/03/10 03:31:21;;;;;;;27.45;14.02;;;;;;;4.94;68.22;98894.16;4825400;29;20037;-80
2021/03/10 03:33:46;;;;;;;23.00;13.38;;;;;;;4.91;68.52;98891.19;4826187;29;20038;-79
2021/03/10 03:36:12;;;;;;;28.80;14.48;;;;;;;4.94;68.43;98893.34;4842991;29;20044;-79
2021/03/10 03:38:38;;;;;;;18.88;12.75;;;;;;;4.93;68.71;98886.44;4826282;29;20053;-79
2021/03/10 03:41:04;;;;;;;22.85;13.93;;;;;;;4.94;68.93;98893.34;4825857;29;20034;-79
2021/03/10 03:43:29;;;;;;;24.52;13.45;;;;;;;4.95;68.98;98889.66;4825708;29;20042;-79
2021/03/10 03:45:56;;;;;;;26.08;14.63;;;;;;;4.96;68.96;98878.03;4825809;29;20065;-79
2021/03/10 03:48:21;;;;;;;26.15;15.20;;;;;;;4.96;69.02;98872.72;4825965;29;20042;-78
2021/03/10 03:50:47;;;;;;;21.85;13.23;;;;;;;4.89;68.95;98867.56;4842512;29;20465;-78
2021/03/10 03:53:14;;;;;;;25.33;13.00;;;;;;;4.94;69.15;98859.72;4842311;29;20488;-78
2021/03/10 03:55:43;;;;;;;24.40;13.90;;;;;;;4.95;69.12;98871.91;4825174;29;20042;-79
2021/03/10 03:58:08;;;;;;;25.55;13.60;;;;;;;4.97;68.99;98861.06;4825985;29;20065;-79
2021/03/10 04:00:34;;;;;;;23.30;14.07;;;;;;;4.94;69.05;98856.25;4824238;29;20030;-79
2021/03/10 04:02:59;;;;;;;29.13;16.92;;;;;;;4.92;69.71;98853.84;4826404;29;20505;-79
2021/03/10 04:05:25;;;;;;;28.33;15.32;;;;;;;4.94;69.57;98861.56;4825954;29;20041;-79
2021/03/10 04:07:52;;;;;;;21.52;14.23;;;;;;;4.95;69.28;98861.28;4826203;29;20042;-78
2021/03/10 04:10:32;;;;;;;28.65;14.25;;;;;;;4.95;69.10;98855.22;4825117;29;20133;-78
2021/03/10 04:12:59;;;;;;;25.83;14.73;;;;;;;4.97;69.25;98855.78;4822543;29;20042;-79
2021/03/10 04:15:28;;;;;;;26.05;14.70;;;;;;;4.94;69.26;98858.91;4836898;29;20045;-78
2021/03/10 04:17:54;;;;;;;25.45;15.18;;;;;;;4.93;69.19;98849.34;4828857;29;20508;-77
2021/03/10 04:20:22;;;;;;;22.95;14.80;;;;;;;4.95;69.57;98841.97;4827218;29;20044;-77
2021/03/10 04:22:47;;;;;;;30.13;16.45;;;;;;;4.90;69.35;98834.72;4828209;29;20065;-78
2021/03/10 04:25:14;;;;;;;24.27;13.85;;;;;;;4.93;69.67;98844.88;4843954;29;20492;-77
2021/03/10 04:27:39;;;;;;;28.10;14.88;;;;;;;4.94;69.81;98846.47;4845256;29;20048;-78
2021/03/10 04:30:07;;;;;;;27.90;16.63;;;;;;;4.96;69.49;98848.88;4827686;29;20034;-79
2021/03/10 04:32:33;;;;;;;28.23;14.27;;;;;;;5.00;69.46;98852.63;4843601;29;20038;-79
2021/03/10 04:34:59;;;;;;;26.35;14.60;;;;;;;4.97;69.40;98848.63;4829897;29;20038;-79
2021/03/10 04:37:25;;;;;;;22.67;14.50;;;;;;;4.96;69.40;98836.41;4827752;29;20486;-79
2021/03/10 04:39:50;;;;;;;26.95;15.25;;;;;;;4.94;69.41;98835.03;4826832;29;20500;-78
2021/03/10 04:42:16;;;;;;;27.60;15.65;;;;;;;4.93;69.42;98844.03;4828548;29;20056;-78
2021/03/10 04:44:41;;;;;;;25.30;15.02;;;;;;;4.92;69.63;98853.84;4825914;29;20496;-77
2021/03/10 04:47:06;;;;;;;32.72;16.15;;;;;;;4.89;69.88;98845.59;4826870;29;20063;-78
2021/03/10 04:49:32;;;;;;;27.92;17.13;;;;;;;4.88;69.98;98844.78;4843079;29;20038;-77
2021/03/10 04:51:57;;;;;;;32.60;16.15;;;;;;;4.88;69.93;98839.50;4827122;29;20030;-77
2021/03/10 04:54:23;;;;;;;28.33;16.20;;;;;;;4.86;69.68;98835.47;4827666;29;20519;-77
2021/03/10 04:56:48;;;;;;;30.58;16.42;;;;;;;4.83;70.00;98831.44;4842593;29;20107;-77
2021/03/10 04:59:14;;;;;;;28.45;17.27;;;;;;;4.82;69.89;98829.84;4826484;29;20536;-78
2021/03/10 05:01:39;;;;;;;25.42;15.85;;;;;;;4.83;70.27;98835.97;4825553;29;20033;-78
2021/03/10 05:04:05;;;;;;;31.98;17.55;;;;;;;4.84;69.99;98838.34;4843865;29;20433;-79
2021/03/10 05:06:30;;;;;;;30.77;15.02;;;;;;;4.84;70.15;98842.88;4827518;29;20050;-79
2021/03/10 05:08:56;;;;;;;26.08;15.82;;;;;;;4.84;70.27;98842.88;4826651;29;20423;-80
2021/03/10 05:11:22;;;;;;;32.45;17.90;;;;;;;4.82;70.31;98843.09;4824533;29;20045;-78
2021/03/10 05:13:48;;;;;;;33.45;17.30;;;;;;;4.82;70.56;98840.44;4842491;29;20070;-79
2021/03/10 05:16:14;;;;;;;29.23;16.23;;;;;;;4.86;70.28;98838.09;4826770;29;20037;-79
2021/03/10 05:18:40;;;;;;;38.20;19.45;;;;;;;4.86;70.54;98844.22;4841852;29;20120;-78
2021/03/10 05:21:06;;;;;;;27.45;15.65;;;;;;;4.82;70.54;98843.09;4829379;29;20128;-78
2021/03/10 05:23:31;;;;;;;33.97;18.65;;;;;;;4.86;70.54;98849.53;4826572;29;20041;-79
2021/03/10 05:25:57;;;;;;;32.20;16.55;;;;;;;4.86;71.01;98846.06;4842606;29;20098;-79
2021/03/10 05:28:22;;;;;;;30.85;16.65;;;;;;;4.86;70.83;98844.22;4826257;29;20040;-79
2021/03/10 05:30:48;;;;;;;41.40;19.83;;;;;;;4.87;71.16;98839.72;4827063;29;20501;-78
2021/03/10 05:33:13;;;;;;;32.25;17.13;;;;;;;4.90;70.53;98842.69;4844336;29;20040;-77
2021/03/10 05:35:38;;;;;;;36.50;16.10;;;;;;;4.92;70.69;98834.47;4824903;29;20082;-78
2021/03/10 05:38:04;;;;;;;33.70;18.70;;;;;;;4.96;70.62;98843.56;4826394;29;20476;-79
2021/03/10 05:40:30;;;;;;;36.30;19.23;;;;;;;4.99;70.93;98843.06;4826627;29;20137;-77
2021/03/10 05:42:56;;;;;;;32.22;19.40;;;;;;;5.04;70.94;98842.34;4826546;29;20041;-77
2021/03/10 05:45:21;;;;;;;42.30;19.88;;;;;;;5.08;70.79;98828.34;4825236;29;20034;-78
2021/03/10 05:47:47;;;;;;;43.10;19.48;;;;;;;5.13;70.88;98827.63;4840200;29;20420;-77
2021/03/10 05:50:15;;;;;;;37.90;18.75;;;;;;;5.12;70.80;98820.72;4843380;29;20120;-80
2021/03/10 05:52:42;;;;;;;;;;;;;;;5.11;71.01;98817.28;4828377;29;20087;-79
2021/03/10 05:55:09;;;;;;;32.33;18.27;;;;;;;5.12;71.05;98820.72;4828988;29;19920;-78
2021/03/10 05:57:35;;;;;;;37.53;20.42;;;;;;;5.15;71.26;98824.72;4826311;29;20133;-78
2021/03/10 06:00:06;;;;;;;36.28;20.58;;;;;;;5.16;71.25;98826.34;4828095;29;20182;-77
2021/03/10 06:02:32;;;;;;;33.03;19.00;;;;;;;5.21;71.18;98827.22;4841654;29;20038;-77
2021/03/10 06:04:57;;;;;;;39.05;20.20;;;;;;;5.24;70.70;98832.00;4825430;29;20049;-79
2021/03/10 06:07:24;;;;;;;32.42;18.40;;;;;;;5.27;70.87;98842.13;4825574;29;20038;-78
2021/03/10 06:09:58;;;;;;;31.27;16.92;;;;;;;5.31;70.65;98846.94;4824342;29;20038;-79
2021/03/10 06:12:24;;;;;;;31.60;19.15;;;;;;;5.33;70.84;98845.63;4824366;29;20037;-78
2021/03/10 06:15:00;;;;;;;33.88;19.45;;;;;;;5.38;71.13;98843.06;4823882;29;20044;-78
2021/03/10 06:17:25;;;;;;;34.45;18.85;;;;;;;5.41;70.34;98853.16;4840248;29;20437;-79
2021/03/10 06:19:51;;;;;;;32.45;19.35;;;;;;;5.47;70.57;98843.44;4823475;29;20038;-80
2021/03/10 06:22:18;;;;;;;35.42;18.83;;;;;;;5.53;70.18;98854.88;4824502;29;20050;-78
2021/03/10 06:24:44;;;;;;;37.08;20.10;;;;;;;5.57;70.09;98861.31;4824436;29;20042;-78
2021/03/10 06:27:10;;;;;;;32.88;18.38;;;;;;;5.59;70.19;98859.19;4825704;29;20048;-78
2021/03/10 06:29:36;;;;;;;39.80;21.00;;;;;;;5.64;69.90;98853.97;4841369;29;20038;-78
2021/03/10 06:32:06;;;;;;;33.28;19.15;;;;;;;5.71;69.84;98845.81;4840817;29;20044;-78
2021/03/10 06:34:50;;;;;;;34.90;20.15;;;;;;;5.78;69.84;98846.41;4840158;29;20042;-78
2021/03/10 06:37:29;;;;;;;35.08;19.63;;;;;;;5.84;70.07;98847.28;4822202;29;20030;-77
2021/03/10 06:40:11;;;;;;;31.77;18.42;;;;;;;5.84;69.71;98847.28;4836427;29;20034;-78
2021/03/10 06:42:37;;;;;;;30.58;17.88;;;;;;;5.87;69.73;98849.44;4840687;29;20109;-78
2021/03/10 06:45:05;;;;;;;35.95;18.85;;;;;;;5.90;69.69;98843.63;4843962;29;20113;-77
2021/03/10 06:47:38;;;;;;;29.45;16.33;;;;;;;5.93;69.58;98841.28;4835478;29;20548;-78
2021/03/10 06:50:05;;;;;;;34.25;17.75;;;;;;;5.97;69.39;98838.13;4826603;29;20416;-78
2021/03/10 06:52:30;;;;;;;38.20;17.52;;;;;;;6.05;69.48;98846.47;4824867;29;20038;-78
2021/03/10 06:54:58;;;;;;;29.63;17.00;;;;;;;6.10;69.14;98845.69;4842193;29;20042;-78
2021/03/10 06:57:24;;;;;;;27.65;16.42;;;;;;;6.14;68.85;98838.84;4823801;29;20109;-78
2021/03/10 06:59:52;;;;;;;33.88;16.73;;;;;;;6.16;68.73;98850.00;4840678;29;20772;-78
2021/03/10 07:02:19;;;;;;;34.10;18.15;;;;;;;6.15;68.93;98848.44;4823367;29;20048;-78
2021/03/10 07:04:46;;;;;;;28.58;17.48;;;;;;;6.15;69.19;98835.16;4822426;29;20327;-77
2021/03/10 07:07:13;;;;;;;30.30;17.10;;;;;;;6.16;69.03;98828.75;4842382;29;20040;-78
2021/03/10 07:09:39;;;;;;;25.08;15.30;;;;;;;6.20;68.98;98837.03;4823189;29;20041;-77
2021/03/10 07:12:09;;;;;;;27.65;17.00;;;;;;;6.19;69.31;98832.75;4825492;29;20041;-77
2021/03/10 07:14:36;;;;;;;23.35;14.75;;;;;;;6.23;69.19;98833.88;4819163;29;20033;-77
2021/03/10 07:17:07;;;;;;;28.10;16.55;;;;;;;6.23;68.98;98839.97;4834981;29;20049;-78
2021/03/10 07:19:33;;;;;;;33.40;17.08;;;;;;;6.24;68.52;98838.16;4827329;29;20033;-76
2021/03/10 07:22:05;;;;;;;32.67;16.00;;;;;;;6.27;68.86;98829.66;4826987;29;20112;-78
2021/03/10 07:24:40;;;;;;;27.02;15.52;;;;;;;6.29;69.04;98835.53;4842451;29;20045;-78
2021/03/10 07:27:08;;;;;;;28.98;15.35;;;;;;;6.32;69.19;98827.03;4842787;29;20416;-78
2021/03/10 07:29:38;;;;;;;30.95;16.40;;;;;;;6.31;68.60;98811.38;4827005;29;20036;-79
2021/03/10 07:32:05;;;;;;;30.88;16.00;;;;;;;6.36;68.67;98828.16;4826328;29;20065;-78
2021/03/10 07:34:32;;;;;;;31.20;16.15;;;;;;;6.34;68.80;98822.28;4844579;29;20508;-76
2021/03/10 07:36:58;;;;;;;28.58;15.82;;;;;;;6.36;69.03;98809.56;4842344;29;20034;-76
2021/03/10 07:39:32;;;;;;;28.60;15.50;;;;;;;6.40;68.63;98823.94;4845180;29;20477;-77
2021/03/10 07:42:09;;;;;;;30.63;15.68;;;;;;;6.44;68.72;98816.25;4825894;29;20034;-77
2021/03/10 07:44:34;;;;;;;26.58;16.40;;;;;;;6.48;68.58;98814.72;4842148;29;20052;-75
2021/03/10 07:47:11;;;;;;;29.17;16.67;;;;;;;6.55;68.86;98809.16;4825290;29;20512;-77
2021/03/10 07:49:40;;;;;;;33.17;17.58;;;;;;;6.60;68.53;98811.84;4842436;29;20124;-77
2021/03/10 07:52:07;;;;;;;33.05;15.70;;;;;;;6.68;68.38;98810.59;4845330;29;20048;-76
2021/03/10 07:54:34;;;;;;;32.10;17.75;;;;;;;6.69;68.23;98810.31;4845709;29;20442;-76
2021/03/10 07:57:14;;;;;;;26.33;15.98;;;;;;;6.77;68.73;98806.38;4829467;29;20469;-73
2021/03/10 07:59:53;;;;;;;24.17;15.45;;;;;;;6.82;68.09;98814.41;4829172;29;20403;-74
2021/03/10 08:02:19;;;;;;;28.05;14.88;;;;;;;6.84;68.21;98795.53;4845710;29;20484;-75
2021/03/10 08:04:57;;;;;;;23.00;13.55;;;;;;;6.92;67.53;98803.03;4847766;29;20041;-76
2021/03/10 08:07:28;;;;;;;23.70;13.40;;;;;;;7.02;67.56;98812.91;4830623;29;20034;-77
2021/03/10 08:09:54;;;;;;;25.50;13.88;;;;;;;7.04;66.94;98794.81;4847498;29;20030;-76
2021/03/10 08:12:40;;;;;;;24.38;13.50;;;;;;;7.10;66.79;98779.72;4847225;29;20041;-76
2021/03/10 08:15:20;;;;;;;26.52;14.32;;;;;;;7.12;66.78;98786.38;4829920;29;20124;-76
2021/03/10 08:17:46;;;;;;;20.77;12.65;;;;;;;7.19;65.71;98789.59;4830273;29;20033;-77
2021/03/10 08:20:12;;;;;;;25.80;14.45;;;;;;;7.24;66.39;98786.16;4845281;29;20033;-76
2021/03/10 08:22:37;;;;;;;20.65;12.02;;;;;;;7.24;66.18;98778.19;4846058;29;20481;-76
2021/03/10 08:25:05;;;;;;;25.55;13.20;;;;;;;7.28;65.71;98765.94;4830132;29;20401;-78
2021/03/10 08:27:42;;;;;;;22.83;12.30;;;;;;;7.34;64.81;98767.56;4829527;29;20034;-79
2021/03/10 08:30:13;;;;;;;22.73;13.43;;;;;;;7.34;65.14;98769.44;4828269;29;20140;-78
2021/03/10 08:32:39;;;;;;;23.50;13.63;;;;;;;7.36;65.08;98748.66;4843352;29;20030;-77
2021/03/10 08:35:14;;;;;;;20.55;11.75;;;;;;;7.42;65.15;98744.16;4844104;29;20615;-76
2021/03/10 08:37:43;;;;;;;17.67;10.73;;;;;;;7.46;64.64;98747.91;4834705;29;20030;-79
2021/03/10 08:48:19;;;;;;;22.67;11.38;;;;;;;7.62;64.21;98738.91;5145886;24;20134;-79
2021/03/10 08:53:35;;;;;;;18.80;10.77;;;;;;;7.67;64.25;98722.94;5179866;23;20123;-79
2021/03/10 08:56:06;;;;;;;22.05;11.88;;;;;;;7.73;64.07;98715.75;4830211;29;20030;-77
2021/03/10 08:58:32;;;;;;;22.33;11.98;;;;;;;7.78;63.95;98714.97;4854089;29;20038;-80
